sensor_id;sensor_type;location;lat;lon;timestamp;P1;durP1;ratioP1;P2;durP2;ratioP2
1382;SDS011;685;47.196;11.880;2022-12-15T00:01:01;8.00;;;7.20;;
1382;SDS011;685;47.196;11.880;2022-12-15T00:03:46;8.90;;;8.00;;
1382;SDS011;685;47.196;11.880;2022-12-15T00:06:31;8.13;;;7.20;;
1382;SDS011;685;47.196;11.880;2022-12-15T00:09:15;10.00;;;7.70;;
1382;SDS011;685;47.196;11.880;2022-12-15T00:11:59;13.70;;;8.97;;
1382;SDS011;685;47.196;11.880;2022-12-15T00:14:45;7.73;;;6.80;;
1382;SDS011;685;47.196;11.880;2022-12-15T00:17:29;6.43;;;5.93;;
1382;SDS011;685;47.196;11.880;2022-12-15T00:20:14;6.60;;;5.63;;
1382;SDS011;685;47.196;11.880;2022-12-15T00:23:05;6.37;;;5.63;;
1382;SDS011;685;47.196;11.880;2022-12-15T00:25:50;8.70;;;7.90;;
1382;SDS011;685;47.196;11.880;2022-12-15T00:28:34;10.77;;;8.30;;
1382;SDS011;685;47.196;11.880;2022-12-15T00:31:20;8.33;;;6.23;;
1382;SDS011;685;47.196;11.880;2022-12-15T00:34:04;10.77;;;6.87;;
1382;SDS011;685;47.196;11.880;2022-12-15T00:36:49;11.47;;;8.13;;
1382;SDS011;685;47.196;11.880;2022-12-15T00:39:33;13.37;;;9.73;;
1382;SDS011;685;47.196;11.880;2022-12-15T00:42:00;10.77;;;8.63;;
1382;SDS011;685;47.196;11.880;2022-12-15T00:44:27;10.07;;;7.80;;
1382;SDS011;685;47.196;11.880;2022-12-15T00:46:55;9.43;;;7.77;;
1382;SDS011;685;47.196;11.880;2022-12-15T00:49:21;11.93;;;7.20;;
1382;SDS011;685;47.196;11.880;2022-12-15T00:52:06;7.60;;;6.90;;
1382;SDS011;685;47.196;11.880;2022-12-15T00:54:51;7.80;;;7.00;;
1382;SDS011;685;47.196;11.880;2022-12-15T00:57:35;7.67;;;6.50;;
1382;SDS011;685;47.196;11.880;2022-12-15T01:00:19;7.97;;;5.97;;
1382;SDS011;685;47.196;11.880;2022-12-15T01:03:09;8.87;;;8.03;;
1382;SDS011;685;47.196;11.880;2022-12-15T01:05:55;10.10;;;7.37;;
1382;SDS011;685;47.196;11.880;2022-12-15T01:08:39;7.20;;;6.50;;
1382;SDS011;685;47.196;11.880;2022-12-15T01:11:23;9.27;;;6.50;;
1382;SDS011;685;47.196;11.880;2022-12-15T01:14:08;9.33;;;5.80;;
1382;SDS011;685;47.196;11.880;2022-12-15T01:16:52;7.53;;;5.83;;
1382;SDS011;685;47.196;11.880;2022-12-15T01:19:37;5.53;;;4.63;;
1382;SDS011;685;47.196;11.880;2022-12-15T01:22:22;6.07;;;5.50;;
1382;SDS011;685;47.196;11.880;2022-12-15T01:24:49;6.20;;;5.70;;
1382;SDS011;685;47.196;11.880;2022-12-15T01:27:16;7.43;;;6.80;;
1382;SDS011;685;47.196;11.880;2022-12-15T01:29:43;7.10;;;6.43;;
1382;SDS011;685;47.196;11.880;2022-12-15T01:32:10;8.47;;;7.57;;
1382;SDS011;685;47.196;11.880;2022-12-15T01:34:39;9.03;;;8.03;;
1382;SDS011;685;47.196;11.880;2022-12-15T01:37:05;7.57;;;6.77;;
1382;SDS011;685;47.196;11.880;2022-12-15T01:39:32;7.77;;;6.33;;
1382;SDS011;685;47.196;11.880;2022-12-15T01:42:13;8.37;;;5.97;;
1382;SDS011;685;47.196;11.880;2022-12-15T01:44:40;6.97;;;6.00;;
1382;SDS011;685;47.196;11.880;2022-12-15T01:47:07;10.70;;;6.17;;
1382;SDS011;685;47.196;11.880;2022-12-15T01:49:40;5.60;;;5.10;;
1382;SDS011;685;47.196;11.880;2022-12-15T01:52:11;6.70;;;6.10;;
1382;SDS011;685;47.196;11.880;2022-12-15T01:54:41;8.97;;;7.87;;
1382;SDS011;685;47.196;11.880;2022-12-15T01:57:15;11.10;;;8.00;;
1382;SDS011;685;47.196;11.880;2022-12-15T01:59:46;8.93;;;8.07;;
1382;SDS011;685;47.196;11.880;2022-12-15T02:02:17;8.43;;;7.73;;
1382;SDS011;685;47.196;11.880;2022-12-15T02:04:46;7.73;;;7.00;;
1382;SDS011;685;47.196;11.880;2022-12-15T02:07:15;9.70;;;7.90;;
1382;SDS011;685;47.196;11.880;2022-12-15T02:09:42;10.20;;;8.23;;
1382;SDS011;685;47.196;11.880;2022-12-15T02:12:15;9.67;;;7.57;;
1382;SDS011;685;47.196;11.880;2022-12-15T02:14:53;8.37;;;6.53;;
1382;SDS011;685;47.196;11.880;2022-12-15T02:17:32;7.77;;;7.00;;
1382;SDS011;685;47.196;11.880;2022-12-15T02:20:19;7.93;;;7.03;;
1382;SDS011;685;47.196;11.880;2022-12-15T02:29:17;6.57;;;5.97;;
1382;SDS011;685;47.196;11.880;2022-12-15T02:32:03;8.43;;;6.30;;
1382;SDS011;685;47.196;11.880;2022-12-15T02:34:36;6.40;;;5.67;;
1382;SDS011;685;47.196;11.880;2022-12-15T02:37:09;5.40;;;4.90;;
1382;SDS011;685;47.196;11.880;2022-12-15T02:39:41;6.20;;;5.20;;
1382;SDS011;685;47.196;11.880;2022-12-15T02:42:09;8.20;;;6.50;;
1382;SDS011;685;47.196;11.880;2022-12-15T02:44:37;8.97;;;6.93;;
1382;SDS011;685;47.196;11.880;2022-12-15T02:52:50;5.87;;;5.23;;
1382;SDS011;685;47.196;11.880;2022-12-15T02:55:27;6.57;;;5.97;;
1382;SDS011;685;47.196;11.880;2022-12-15T02:58:01;5.77;;;4.60;;
1382;SDS011;685;47.196;11.880;2022-12-15T03:00:34;4.60;;;4.20;;
1382;SDS011;685;47.196;11.880;2022-12-15T03:03:07;4.30;;;3.90;;
1382;SDS011;685;47.196;11.880;2022-12-15T03:05:35;5.07;;;4.00;;
1382;SDS011;685;47.196;11.880;2022-12-15T03:08:02;3.23;;;2.93;;
1382;SDS011;685;47.196;11.880;2022-12-15T03:10:29;3.80;;;3.40;;
1382;SDS011;685;47.196;11.880;2022-12-15T03:12:56;5.10;;;4.60;;
1382;SDS011;685;47.196;11.880;2022-12-15T03:15:23;6.97;;;6.20;;
1382;SDS011;685;47.196;11.880;2022-12-15T03:17:50;8.23;;;7.03;;
1382;SDS011;685;47.196;11.880;2022-12-15T03:20:18;7.63;;;6.80;;
1382;SDS011;685;47.196;11.880;2022-12-15T03:22:45;10.43;;;8.40;;
1382;SDS011;685;47.196;11.880;2022-12-15T03:25:12;8.53;;;7.60;;
1382;SDS011;685;47.196;11.880;2022-12-15T03:27:39;8.53;;;7.23;;
1382;SDS011;685;47.196;11.880;2022-12-15T03:30:06;9.60;;;6.37;;
1382;SDS011;685;47.196;11.880;2022-12-15T03:32:34;8.50;;;7.50;;
1382;SDS011;685;47.196;11.880;2022-12-15T03:35:00;8.20;;;7.40;;
1382;SDS011;685;47.196;11.880;2022-12-15T03:37:29;9.93;;;7.70;;
1382;SDS011;685;47.196;11.880;2022-12-15T03:39:56;10.33;;;7.47;;
1382;SDS011;685;47.196;11.880;2022-12-15T03:42:23;7.30;;;6.50;;
1382;SDS011;685;47.196;11.880;2022-12-15T03:45:04;10.93;;;7.93;;
1382;SDS011;685;47.196;11.880;2022-12-15T03:47:31;8.87;;;7.40;;
1382;SDS011;685;47.196;11.880;2022-12-15T03:49:58;10.70;;;7.70;;
1382;SDS011;685;47.196;11.880;2022-12-15T03:52:25;7.63;;;6.83;;
1382;SDS011;685;47.196;11.880;2022-12-15T03:54:53;6.87;;;5.90;;
1382;SDS011;685;47.196;11.880;2022-12-15T03:57:20;6.17;;;5.23;;
1382;SDS011;685;47.196;11.880;2022-12-15T03:59:47;5.43;;;4.93;;
1382;SDS011;685;47.196;11.880;2022-12-15T04:02:14;7.20;;;5.30;;
1382;SDS011;685;47.196;11.880;2022-12-15T04:04:41;8.03;;;7.30;;
1382;SDS011;685;47.196;11.880;2022-12-15T04:07:07;8.77;;;6.87;;
1382;SDS011;685;47.196;11.880;2022-12-15T04:09:34;8.60;;;6.80;;
1382;SDS011;685;47.196;11.880;2022-12-15T04:12:02;9.93;;;7.13;;
1382;SDS011;685;47.196;11.880;2022-12-15T04:14:30;7.83;;;7.03;;
1382;SDS011;685;47.196;11.880;2022-12-15T04:16:57;8.80;;;7.43;;
1382;SDS011;685;47.196;11.880;2022-12-15T04:19:24;8.80;;;6.30;;
1382;SDS011;685;47.196;11.880;2022-12-15T04:22:08;8.70;;;7.90;;
1382;SDS011;685;47.196;11.880;2022-12-15T04:24:35;6.20;;;5.60;;
1382;SDS011;685;47.196;11.880;2022-12-15T04:27:21;9.00;;;6.10;;
1382;SDS011;685;47.196;11.880;2022-12-15T04:30:05;7.40;;;6.27;;
1382;SDS011;685;47.196;11.880;2022-12-15T04:32:50;7.57;;;6.53;;
1382;SDS011;685;47.196;11.880;2022-12-15T04:35:35;5.20;;;4.70;;
1382;SDS011;685;47.196;11.880;2022-12-15T04:38:19;5.57;;;4.17;;
1382;SDS011;685;47.196;11.880;2022-12-15T04:41:04;6.63;;;5.90;;
1382;SDS011;685;47.196;11.880;2022-12-15T04:43:50;8.27;;;7.37;;
1382;SDS011;685;47.196;11.880;2022-12-15T04:46:34;10.27;;;8.23;;
1382;SDS011;685;47.196;11.880;2022-12-15T04:49:18;8.50;;;7.70;;
1382;SDS011;685;47.196;11.880;2022-12-15T04:52:03;7.23;;;6.53;;
1382;SDS011;685;47.196;11.880;2022-12-15T04:54:47;6.67;;;5.57;;
1382;SDS011;685;47.196;11.880;2022-12-15T04:57:31;4.43;;;4.00;;
1382;SDS011;685;47.196;11.880;2022-12-15T05:00:17;4.90;;;4.40;;
1382;SDS011;685;47.196;11.880;2022-12-15T05:03:02;4.37;;;4.07;;
1382;SDS011;685;47.196;11.880;2022-12-15T05:05:47;7.03;;;5.80;;
1382;SDS011;685;47.196;11.880;2022-12-15T05:08:31;20.03;;;7.60;;
1382;SDS011;685;47.196;11.880;2022-12-15T05:11:16;7.83;;;7.10;;
1382;SDS011;685;47.196;11.880;2022-12-15T05:14:00;11.73;;;8.90;;
1382;SDS011;685;47.196;11.880;2022-12-15T05:16:45;10.13;;;9.10;;
1382;SDS011;685;47.196;11.880;2022-12-15T05:19:30;10.80;;;7.80;;
1382;SDS011;685;47.196;11.880;2022-12-15T05:22:14;12.03;;;7.23;;
1382;SDS011;685;47.196;11.880;2022-12-15T05:24:58;11.50;;;5.30;;
1382;SDS011;685;47.196;11.880;2022-12-15T05:27:42;4.77;;;4.13;;
1382;SDS011;685;47.196;11.880;2022-12-15T05:30:26;3.13;;;2.87;;
1382;SDS011;685;47.196;11.880;2022-12-15T05:33:12;3.20;;;2.50;;
1382;SDS011;685;47.196;11.880;2022-12-15T05:35:39;2.90;;;2.60;;
1382;SDS011;685;47.196;11.880;2022-12-15T05:38:06;5.30;;;3.50;;
1382;SDS011;685;47.196;11.880;2022-12-15T05:40:33;5.00;;;3.90;;
1382;SDS011;685;47.196;11.880;2022-12-15T05:42:59;14.40;;;10.57;;
1382;SDS011;685;47.196;11.880;2022-12-15T05:45:26;7.70;;;5.63;;
1382;SDS011;685;47.196;11.880;2022-12-15T05:47:53;4.90;;;3.90;;
1382;SDS011;685;47.196;11.880;2022-12-15T05:50:22;3.47;;;3.10;;
1382;SDS011;685;47.196;11.880;2022-12-15T05:52:49;9.73;;;8.73;;
1382;SDS011;685;47.196;11.880;2022-12-15T05:55:16;11.53;;;10.47;;
1382;SDS011;685;47.196;11.880;2022-12-15T05:57:44;7.57;;;6.13;;
1382;SDS011;685;47.196;11.880;2022-12-15T06:00:15;6.00;;;4.73;;
1382;SDS011;685;47.196;11.880;2022-12-15T06:02:43;5.80;;;4.77;;
1382;SDS011;685;47.196;11.880;2022-12-15T06:05:09;4.37;;;3.87;;
1382;SDS011;685;47.196;11.880;2022-12-15T06:07:38;4.10;;;3.27;;
1382;SDS011;685;47.196;11.880;2022-12-15T06:10:05;4.00;;;3.60;;
1382;SDS011;685;47.196;11.880;2022-12-15T06:12:32;6.40;;;3.37;;
1382;SDS011;685;47.196;11.880;2022-12-15T06:14:59;4.80;;;4.40;;
1382;SDS011;685;47.196;11.880;2022-12-15T06:17:26;3.80;;;3.00;;
1382;SDS011;685;47.196;11.880;2022-12-15T06:19:52;3.97;;;3.57;;
1382;SDS011;685;47.196;11.880;2022-12-15T06:22:19;4.60;;;4.20;;
1382;SDS011;685;47.196;11.880;2022-12-15T06:24:47;4.40;;;3.80;;
1382;SDS011;685;47.196;11.880;2022-12-15T06:27:15;6.03;;;5.43;;
1382;SDS011;685;47.196;11.880;2022-12-15T06:29:42;6.03;;;5.23;;
1382;SDS011;685;47.196;11.880;2022-12-15T06:32:09;4.40;;;4.00;;
1382;SDS011;685;47.196;11.880;2022-12-15T06:34:36;4.93;;;4.47;;
1382;SDS011;685;47.196;11.880;2022-12-15T06:37:02;5.50;;;5.03;;
1382;SDS011;685;47.196;11.880;2022-12-15T06:39:29;8.00;;;7.20;;
1382;SDS011;685;47.196;11.880;2022-12-15T06:41:57;16.57;;;13.07;;
1382;SDS011;685;47.196;11.880;2022-12-15T06:44:24;24.97;;;13.90;;
1382;SDS011;685;47.196;11.880;2022-12-15T06:46:51;12.57;;;9.77;;
1382;SDS011;685;47.196;11.880;2022-12-15T06:49:18;15.87;;;10.40;;
1382;SDS011;685;47.196;11.880;2022-12-15T06:51:47;9.90;;;6.90;;
1382;SDS011;685;47.196;11.880;2022-12-15T06:54:14;10.80;;;9.10;;
1382;SDS011;685;47.196;11.880;2022-12-15T06:56:41;10.93;;;8.90;;
1382;SDS011;685;47.196;11.880;2022-12-15T06:59:10;10.17;;;9.10;;
1382;SDS011;685;47.196;11.880;2022-12-15T07:01:37;11.10;;;8.80;;
1382;SDS011;685;47.196;11.880;2022-12-15T07:04:05;9.40;;;6.97;;
1382;SDS011;685;47.196;11.880;2022-12-15T07:06:33;14.20;;;7.77;;
1382;SDS011;685;47.196;11.880;2022-12-15T07:09:01;16.17;;;8.20;;
1382;SDS011;685;47.196;11.880;2022-12-15T07:11:28;13.27;;;8.30;;
1382;SDS011;685;47.196;11.880;2022-12-15T07:13:55;11.53;;;8.00;;
1382;SDS011;685;47.196;11.880;2022-12-15T07:16:23;8.43;;;7.53;;
1382;SDS011;685;47.196;11.880;2022-12-15T07:18:50;10.77;;;7.77;;
1382;SDS011;685;47.196;11.880;2022-12-15T07:21:17;13.03;;;10.07;;
1382;SDS011;685;47.196;11.880;2022-12-15T07:23:44;16.47;;;12.30;;
1382;SDS011;685;47.196;11.880;2022-12-15T07:26:11;9.27;;;6.77;;
1382;SDS011;685;47.196;11.880;2022-12-15T07:28:38;15.63;;;7.60;;
1382;SDS011;685;47.196;11.880;2022-12-15T07:31:07;97.07;;;17.67;;
1382;SDS011;685;47.196;11.880;2022-12-15T07:33:36;15.50;;;12.27;;
1382;SDS011;685;47.196;11.880;2022-12-15T07:36:04;17.73;;;11.93;;
1382;SDS011;685;47.196;11.880;2022-12-15T07:38:32;16.83;;;9.83;;
1382;SDS011;685;47.196;11.880;2022-12-15T07:41:00;17.87;;;11.93;;
1382;SDS011;685;47.196;11.880;2022-12-15T07:43:28;15.67;;;12.23;;
1382;SDS011;685;47.196;11.880;2022-12-15T07:45:55;28.30;;;14.13;;
1382;SDS011;685;47.196;11.880;2022-12-15T07:48:22;20.77;;;11.97;;
1382;SDS011;685;47.196;11.880;2022-12-15T07:50:50;20.33;;;11.23;;
1382;SDS011;685;47.196;11.880;2022-12-15T07:53:21;24.13;;;13.47;;
1382;SDS011;685;47.196;11.880;2022-12-15T07:55:52;32.97;;;9.43;;
1382;SDS011;685;47.196;11.880;2022-12-15T07:58:19;18.37;;;9.93;;
1382;SDS011;685;47.196;11.880;2022-12-15T08:00:46;26.83;;;10.07;;
1382;SDS011;685;47.196;11.880;2022-12-15T08:03:13;34.07;;;10.93;;
1382;SDS011;685;47.196;11.880;2022-12-15T08:05:40;34.33;;;10.63;;
1382;SDS011;685;47.196;11.880;2022-12-15T08:08:08;48.57;;;12.50;;
1382;SDS011;685;47.196;11.880;2022-12-15T08:10:37;34.63;;;10.37;;
1382;SDS011;685;47.196;11.880;2022-12-15T08:13:05;57.97;;;11.27;;
1382;SDS011;685;47.196;11.880;2022-12-15T08:15:33;40.57;;;11.47;;
1382;SDS011;685;47.196;11.880;2022-12-15T08:18:01;27.83;;;10.90;;
1382;SDS011;685;47.196;11.880;2022-12-15T08:20:28;17.83;;;9.60;;
1382;SDS011;685;47.196;11.880;2022-12-15T08:22:55;45.50;;;17.20;;
1382;SDS011;685;47.196;11.880;2022-12-15T08:25:23;61.00;;;19.80;;
1382;SDS011;685;47.196;11.880;2022-12-15T08:27:52;107.97;;;20.33;;
1382;SDS011;685;47.196;11.880;2022-12-15T08:30:19;109.00;;;18.37;;
1382;SDS011;685;47.196;11.880;2022-12-15T08:32:48;45.80;;;17.10;;
1382;SDS011;685;47.196;11.880;2022-12-15T08:35:15;66.10;;;16.83;;
1382;SDS011;685;47.196;11.880;2022-12-15T08:37:42;22.80;;;12.47;;
1382;SDS011;685;47.196;11.880;2022-12-15T08:40:09;39.53;;;13.10;;
1382;SDS011;685;47.196;11.880;2022-12-15T08:42:38;12.43;;;7.80;;
1382;SDS011;685;47.196;11.880;2022-12-15T08:45:05;19.53;;;11.37;;
1382;SDS011;685;47.196;11.880;2022-12-15T08:47:33;29.23;;;15.40;;
1382;SDS011;685;47.196;11.880;2022-12-15T08:50:00;21.67;;;11.30;;
1382;SDS011;685;47.196;11.880;2022-12-15T08:52:27;27.93;;;13.77;;
1382;SDS011;685;47.196;11.880;2022-12-15T08:54:54;96.63;;;18.60;;
1382;SDS011;685;47.196;11.880;2022-12-15T08:57:20;68.47;;;18.93;;
1382;SDS011;685;47.196;11.880;2022-12-15T08:59:49;36.97;;;13.93;;
1382;SDS011;685;47.196;11.880;2022-12-15T09:02:15;21.83;;;14.77;;
1382;SDS011;685;47.196;11.880;2022-12-15T09:04:42;38.13;;;16.70;;
1382;SDS011;685;47.196;11.880;2022-12-15T09:07:09;33.87;;;16.50;;
1382;SDS011;685;47.196;11.880;2022-12-15T09:09:37;22.70;;;15.63;;
1382;SDS011;685;47.196;11.880;2022-12-15T09:12:04;20.47;;;13.93;;
1382;SDS011;685;47.196;11.880;2022-12-15T09:14:31;22.27;;;14.93;;
1382;SDS011;685;47.196;11.880;2022-12-15T09:17:00;26.53;;;16.57;;
1382;SDS011;685;47.196;11.880;2022-12-15T09:19:27;19.83;;;12.23;;
1382;SDS011;685;47.196;11.880;2022-12-15T09:21:54;18.07;;;12.73;;
1382;SDS011;685;47.196;11.880;2022-12-15T09:24:21;17.90;;;12.70;;
1382;SDS011;685;47.196;11.880;2022-12-15T09:26:48;30.53;;;15.00;;
1382;SDS011;685;47.196;11.880;2022-12-15T09:29:15;22.63;;;15.30;;
1382;SDS011;685;47.196;11.880;2022-12-15T09:31:43;34.87;;;15.47;;
1382;SDS011;685;47.196;11.880;2022-12-15T09:34:13;49.03;;;14.40;;
1382;SDS011;685;47.196;11.880;2022-12-15T09:36:40;23.13;;;12.60;;
1382;SDS011;685;47.196;11.880;2022-12-15T09:39:08;35.87;;;12.17;;
1382;SDS011;685;47.196;11.880;2022-12-15T09:41:36;16.40;;;10.80;;
1382;SDS011;685;47.196;11.880;2022-12-15T09:44:05;17.13;;;11.10;;
1382;SDS011;685;47.196;11.880;2022-12-15T09:46:46;14.07;;;12.57;;
1382;SDS011;685;47.196;11.880;2022-12-15T09:49:41;19.37;;;11.67;;
1382;SDS011;685;47.196;11.880;2022-12-15T09:52:19;29.67;;;13.00;;
1382;SDS011;685;47.196;11.880;2022-12-15T09:54:49;30.93;;;17.70;;
1382;SDS011;685;47.196;11.880;2022-12-15T09:57:19;25.23;;;11.70;;
1382;SDS011;685;47.196;11.880;2022-12-15T10:05:33;19.33;;;13.10;;
1382;SDS011;685;47.196;11.880;2022-12-15T10:08:07;16.80;;;12.43;;
1382;SDS011;685;47.196;11.880;2022-12-15T10:10:37;27.77;;;13.77;;
1382;SDS011;685;47.196;11.880;2022-12-15T10:13:08;16.10;;;11.83;;
1382;SDS011;685;47.196;11.880;2022-12-15T10:15:44;13.43;;;10.97;;
1382;SDS011;685;47.196;11.880;2022-12-15T10:18:17;35.73;;;12.30;;
1382;SDS011;685;47.196;11.880;2022-12-15T10:20:50;28.53;;;12.67;;
1382;SDS011;685;47.196;11.880;2022-12-15T10:23:19;19.50;;;12.47;;
1382;SDS011;685;47.196;11.880;2022-12-15T10:25:47;16.00;;;13.27;;
1382;SDS011;685;47.196;11.880;2022-12-15T10:28:23;20.33;;;12.57;;
1382;SDS011;685;47.196;11.880;2022-12-15T10:31:12;18.13;;;13.50;;
1382;SDS011;685;47.196;11.880;2022-12-15T10:33:43;38.90;;;14.90;;
1382;SDS011;685;47.196;11.880;2022-12-15T10:36:19;30.80;;;14.43;;
1382;SDS011;685;47.196;11.880;2022-12-15T10:38:47;19.30;;;13.50;;
1382;SDS011;685;47.196;11.880;2022-12-15T10:41:14;16.33;;;12.10;;
1382;SDS011;685;47.196;11.880;2022-12-15T10:43:44;17.60;;;12.23;;
1382;SDS011;685;47.196;11.880;2022-12-15T10:46:13;17.20;;;13.23;;
1382;SDS011;685;47.196;11.880;2022-12-15T10:48:43;18.80;;;12.00;;
1382;SDS011;685;47.196;11.880;2022-12-15T10:51:20;25.27;;;13.53;;
1382;SDS011;685;47.196;11.880;2022-12-15T10:53:52;21.37;;;12.50;;
1382;SDS011;685;47.196;11.880;2022-12-15T10:56:28;20.43;;;12.53;;
1382;SDS011;685;47.196;11.880;2022-12-15T10:58:58;17.07;;;10.43;;
1382;SDS011;685;47.196;11.880;2022-12-15T11:01:28;31.77;;;13.63;;
1382;SDS011;685;47.196;11.880;2022-12-15T11:03:56;24.57;;;12.50;;
1382;SDS011;685;47.196;11.880;2022-12-15T11:06:25;14.00;;;11.60;;
1382;SDS011;685;47.196;11.880;2022-12-15T11:08:54;15.27;;;12.07;;
1382;SDS011;685;47.196;11.880;2022-12-15T11:11:24;15.90;;;11.37;;
1382;SDS011;685;47.196;11.880;2022-12-15T11:14:11;13.83;;;11.70;;
1382;SDS011;685;47.196;11.880;2022-12-15T11:16:45;16.37;;;11.60;;
1382;SDS011;685;47.196;11.880;2022-12-15T11:19:20;13.33;;;10.97;;
1382;SDS011;685;47.196;11.880;2022-12-15T11:21:58;18.27;;;11.97;;
1382;SDS011;685;47.196;11.880;2022-12-15T11:24:32;15.30;;;11.87;;
1382;SDS011;685;47.196;11.880;2022-12-15T11:27:05;15.60;;;10.63;;
1382;SDS011;685;47.196;11.880;2022-12-15T11:29:43;13.93;;;10.83;;
1382;SDS011;685;47.196;11.880;2022-12-15T11:32:22;21.43;;;14.13;;
1382;SDS011;685;47.196;11.880;2022-12-15T11:34:52;24.37;;;14.67;;
1382;SDS011;685;47.196;11.880;2022-12-15T11:37:34;15.00;;;11.73;;
1382;SDS011;685;47.196;11.880;2022-12-15T11:40:11;13.00;;;10.63;;
1382;SDS011;685;47.196;11.880;2022-12-15T11:42:46;15.10;;;12.00;;
1382;SDS011;685;47.196;11.880;2022-12-15T11:45:35;16.80;;;12.47;;
1382;SDS011;685;47.196;11.880;2022-12-15T11:48:11;16.40;;;11.53;;
1382;SDS011;685;47.196;11.880;2022-12-15T11:50:42;16.87;;;14.20;;
1382;SDS011;685;47.196;11.880;2022-12-15T11:53:38;19.33;;;11.70;;
1382;SDS011;685;47.196;11.880;2022-12-15T11:56:19;15.30;;;10.60;;
1382;SDS011;685;47.196;11.880;2022-12-15T11:58:56;16.33;;;13.23;;
1382;SDS011;685;47.196;11.880;2022-12-15T12:01:41;15.73;;;11.53;;
1382;SDS011;685;47.196;11.880;2022-12-15T12:04:22;13.50;;;11.50;;
1382;SDS011;685;47.196;11.880;2022-12-15T12:06:54;20.90;;;15.53;;
1382;SDS011;685;47.196;11.880;2022-12-15T12:09:33;12.27;;;11.07;;
1382;SDS011;685;47.196;11.880;2022-12-15T12:12:12;22.07;;;17.80;;
1382;SDS011;685;47.196;11.880;2022-12-15T12:14:48;20.67;;;14.00;;
1382;SDS011;685;47.196;11.880;2022-12-15T12:17:27;31.33;;;14.17;;
1382;SDS011;685;47.196;11.880;2022-12-15T12:20:07;18.40;;;12.97;;
1382;SDS011;685;47.196;11.880;2022-12-15T12:22:39;17.37;;;12.00;;
1382;SDS011;685;47.196;11.880;2022-12-15T12:25:12;19.20;;;12.07;;
1382;SDS011;685;47.196;11.880;2022-12-15T12:27:44;17.87;;;13.57;;
1382;SDS011;685;47.196;11.880;2022-12-15T12:30:17;17.37;;;13.40;;
1382;SDS011;685;47.196;11.880;2022-12-15T12:32:48;21.03;;;12.27;;
1382;SDS011;685;47.196;11.880;2022-12-15T12:35:20;18.63;;;12.83;;
1382;SDS011;685;47.196;11.880;2022-12-15T12:37:55;23.00;;;13.87;;
1382;SDS011;685;47.196;11.880;2022-12-15T12:40:27;18.17;;;12.13;;
1382;SDS011;685;47.196;11.880;2022-12-15T12:42:58;15.27;;;12.77;;
1382;SDS011;685;47.196;11.880;2022-12-15T12:45:26;13.73;;;11.10;;
1382;SDS011;685;47.196;11.880;2022-12-15T12:48:02;17.30;;;11.73;;
1382;SDS011;685;47.196;11.880;2022-12-15T12:50:34;17.37;;;12.87;;
1382;SDS011;685;47.196;11.880;2022-12-15T12:53:01;25.10;;;15.60;;
1382;SDS011;685;47.196;11.880;2022-12-15T12:55:35;18.60;;;14.23;;
1382;SDS011;685;47.196;11.880;2022-12-15T13:01:13;15.03;;;13.43;;
1382;SDS011;685;47.196;11.880;2022-12-15T13:03:44;17.57;;;13.00;;
1382;SDS011;685;47.196;11.880;2022-12-15T13:06:18;16.53;;;14.10;;
1382;SDS011;685;47.196;11.880;2022-12-15T13:08:50;19.47;;;15.00;;
1382;SDS011;685;47.196;11.880;2022-12-15T13:17:26;16.17;;;13.10;;
1382;SDS011;685;47.196;11.880;2022-12-15T13:22:53;20.57;;;14.90;;
1382;SDS011;685;47.196;11.880;2022-12-15T13:28:15;14.73;;;11.43;;
1382;SDS011;685;47.196;11.880;2022-12-15T13:33:44;12.10;;;10.90;;
1382;SDS011;685;47.196;11.880;2022-12-15T13:42:32;16.60;;;11.00;;
1382;SDS011;685;47.196;11.880;2022-12-15T13:45:24;13.57;;;10.80;;
1382;SDS011;685;47.196;11.880;2022-12-15T13:48:01;16.87;;;11.90;;
1382;SDS011;685;47.196;11.880;2022-12-15T13:50:39;14.57;;;11.97;;
1382;SDS011;685;47.196;11.880;2022-12-15T13:53:15;15.27;;;10.80;;
1382;SDS011;685;47.196;11.880;2022-12-15T13:55:50;15.50;;;13.00;;
1382;SDS011;685;47.196;11.880;2022-12-15T13:58:20;18.43;;;12.87;;
1382;SDS011;685;47.196;11.880;2022-12-15T14:00:50;15.00;;;13.50;;
1382;SDS011;685;47.196;11.880;2022-12-15T14:03:19;16.20;;;12.80;;
1382;SDS011;685;47.196;11.880;2022-12-15T14:05:49;15.20;;;11.53;;
1382;SDS011;685;47.196;11.880;2022-12-15T14:08:17;18.50;;;14.17;;
1382;SDS011;685;47.196;11.880;2022-12-15T14:10:45;21.37;;;13.37;;
1382;SDS011;685;47.196;11.880;2022-12-15T14:13:17;19.43;;;16.73;;
1382;SDS011;685;47.196;11.880;2022-12-15T14:15:47;18.50;;;15.53;;
1382;SDS011;685;47.196;11.880;2022-12-15T14:18:27;20.57;;;17.87;;
1382;SDS011;685;47.196;11.880;2022-12-15T14:20:56;29.17;;;18.97;;
1382;SDS011;685;47.196;11.880;2022-12-15T14:23:24;23.97;;;17.67;;
1382;SDS011;685;47.196;11.880;2022-12-15T14:25:53;24.03;;;17.20;;
1382;SDS011;685;47.196;11.880;2022-12-15T14:28:25;26.13;;;17.00;;
1382;SDS011;685;47.196;11.880;2022-12-15T14:30:55;25.30;;;19.30;;
1382;SDS011;685;47.196;11.880;2022-12-15T14:33:24;25.10;;;18.43;;
1382;SDS011;685;47.196;11.880;2022-12-15T14:35:52;23.60;;;18.47;;
1382;SDS011;685;47.196;11.880;2022-12-15T14:38:25;25.80;;;17.77;;
1382;SDS011;685;47.196;11.880;2022-12-15T14:40:57;24.00;;;16.97;;
1382;SDS011;685;47.196;11.880;2022-12-15T14:43:28;23.63;;;16.37;;
1382;SDS011;685;47.196;11.880;2022-12-15T14:46:04;22.20;;;17.67;;
1382;SDS011;685;47.196;11.880;2022-12-15T14:48:33;22.33;;;15.20;;
1382;SDS011;685;47.196;11.880;2022-12-15T14:51:03;20.63;;;16.40;;
1382;SDS011;685;47.196;11.880;2022-12-15T14:53:33;22.63;;;16.20;;
1382;SDS011;685;47.196;11.880;2022-12-15T14:56:13;24.03;;;18.87;;
1382;SDS011;685;47.196;11.880;2022-12-15T14:58:52;22.00;;;18.30;;
1382;SDS011;685;47.196;11.880;2022-12-15T15:01:23;25.00;;;16.97;;
1382;SDS011;685;47.196;11.880;2022-12-15T15:03:55;22.00;;;16.70;;
1382;SDS011;685;47.196;11.880;2022-12-15T15:06:26;18.80;;;16.07;;
1382;SDS011;685;47.196;11.880;2022-12-15T15:09:02;18.63;;;14.90;;
1382;SDS011;685;47.196;11.880;2022-12-15T15:11:46;19.83;;;15.40;;
1382;SDS011;685;47.196;11.880;2022-12-15T15:14:17;20.63;;;17.30;;
1382;SDS011;685;47.196;11.880;2022-12-15T15:16:57;21.10;;;17.77;;
1382;SDS011;685;47.196;11.880;2022-12-15T15:19:29;23.43;;;17.20;;
1382;SDS011;685;47.196;11.880;2022-12-15T15:21:58;26.10;;;18.60;;
1382;SDS011;685;47.196;11.880;2022-12-15T15:24:31;24.30;;;18.63;;
1382;SDS011;685;47.196;11.880;2022-12-15T15:27:21;24.90;;;19.20;;
1382;SDS011;685;47.196;11.880;2022-12-15T15:29:52;22.00;;;19.17;;
1382;SDS011;685;47.196;11.880;2022-12-15T15:32:47;28.20;;;21.10;;
1382;SDS011;685;47.196;11.880;2022-12-15T15:35:18;26.47;;;21.50;;
1382;SDS011;685;47.196;11.880;2022-12-15T15:37:46;24.17;;;17.80;;
1382;SDS011;685;47.196;11.880;2022-12-15T15:40:15;24.13;;;19.80;;
1382;SDS011;685;47.196;11.880;2022-12-15T15:42:43;26.87;;;19.97;;
1382;SDS011;685;47.196;11.880;2022-12-15T15:45:10;21.07;;;17.10;;
1382;SDS011;685;47.196;11.880;2022-12-15T15:47:39;25.13;;;17.30;;
1382;SDS011;685;47.196;11.880;2022-12-15T15:50:10;24.63;;;18.20;;
1382;SDS011;685;47.196;11.880;2022-12-15T15:52:39;17.30;;;13.90;;
1382;SDS011;685;47.196;11.880;2022-12-15T15:55:07;20.23;;;15.43;;
1382;SDS011;685;47.196;11.880;2022-12-15T15:57:40;18.30;;;14.83;;
1382;SDS011;685;47.196;11.880;2022-12-15T16:00:16;16.77;;;13.50;;
1382;SDS011;685;47.196;11.880;2022-12-15T16:02:45;17.40;;;14.23;;
1382;SDS011;685;47.196;11.880;2022-12-15T16:05:13;15.60;;;13.70;;
1382;SDS011;685;47.196;11.880;2022-12-15T16:07:40;18.67;;;14.90;;
1382;SDS011;685;47.196;11.880;2022-12-15T16:10:11;16.57;;;14.80;;
1382;SDS011;685;47.196;11.880;2022-12-15T16:12:41;21.10;;;15.90;;